Time;durP1;ratioP1;P1;durP2;ratioP2;P2;SDS_P1;SDS_P2;PMS_P1;PMS_P2;Temp;Humidity;BMP_temperature;BMP_pressure;BME280_temperature;BME280_humidity;BME280_pressure;Samples;Min_cycle;Max_cycle;Signal;HPM_P1;HPM_P2
2022/12/09 00:00:56;;;;;;;127.55;39.92;;;8.00;99.90;;;;;;5111814;28;20043;-51
2022/12/09 00:03:22;;;;;;;150.73;46.65;;;8.00;99.90;;;;;;5076885;28;20040;-52
2022/12/09 00:05:49;;;;;;;190.35;50.15;;;7.80;99.90;;;;;;5055521;28;20129;-52
2022/12/09 00:08:15;;;;;;;161.65;48.88;;;7.80;99.90;;;;;;5114155;28;20367;-54
2022/12/09 00:10:43;;;;;;;195.77;48.38;;;7.80;99.90;;;;;;5113688;28;20027;-49
2022/12/09 00:13:09;;;;;;;114.03;45.10;;;7.50;99.90;;;;;;5094185;28;20175;-52
2022/12/09 00:15:38;;;;;;;146.55;48.35;;;7.50;99.90;;;;;;5094462;28;20120;-53
2022/12/09 00:18:04;;;;;;;178.88;46.13;;;7.60;99.90;;;;;;5111919;28;20107;-50
2022/12/09 00:20:30;;;;;;;157.70;43.42;;;7.70;99.90;;;;;;5113907;28;20042;-52
2022/12/09 00:22:56;;;;;;;170.40;44.85;;;7.80;99.90;;;;;;5114198;28;20479;-50
2022/12/09 00:25:22;;;;;;;150.32;42.72;;;7.80;99.90;;;;;;5114138;28;20039;-52
2022/12/09 00:27:47;;;;;;;159.57;45.42;;;7.70;99.90;;;;;;5113569;28;20154;-51
2022/12/09 00:30:13;;;;;;;121.82;43.05;;;7.50;99.90;;;;;;5113736;28;20035;-49
2022/12/09 00:32:39;;;;;;;190.32;46.25;;;7.50;99.90;;;;;;5077822;28;20048;-53
2022/12/09 00:35:05;;;;;;;173.63;44.35;;;7.60;99.90;;;;;;5111416;28;20548;-53
2022/12/09 00:37:32;;;;;;;194.48;44.75;;;7.70;99.90;;;;;;5094949;28;20047;-52
2022/12/09 00:39:58;;;;;;;204.63;43.28;;;7.80;99.90;;;;;;5112793;28;20063;-50
2022/12/09 00:42:24;;;;;;;205.27;44.70;;;7.60;99.90;;;;;;5095064;28;20086;-51
2022/12/09 00:44:50;;;;;;;99.40;37.83;;;7.60;99.90;;;;;;5114364;28;20412;-53
2022/12/09 00:47:15;;;;;;;187.13;40.20;;;7.60;99.90;;;;;;5114288;28;20451;-51
2022/12/09 00:49:41;;;;;;;120.63;39.05;;;7.60;99.90;;;;;;5111620;28;20487;-52
2022/12/09 00:52:07;;;;;;;219.65;41.22;;;7.80;99.90;;;;;;5113735;28;20085;-52
2022/12/09 00:54:32;;;;;;;151.55;37.47;;;7.80;99.90;;;;;;5113705;28;20092;-51
2022/12/09 00:56:58;;;;;;;152.02;42.45;;;8.00;99.90;;;;;;5113200;28;20564;-51
2022/12/09 00:59:24;;;;;;;152.00;36.35;;;8.10;99.90;;;;;;5110804;28;20043;-54
2022/12/09 01:01:50;;;;;;;155.20;34.35;;;8.00;99.90;;;;;;5094388;28;20126;-52
2022/12/09 01:04:16;;;;;;;99.05;30.52;;;7.90;99.90;;;;;;5094783;28;20093;-52
2022/12/09 01:06:42;;;;;;;127.28;31.63;;;8.00;99.90;;;;;;5094636;28;20372;-49
2022/12/09 01:09:08;;;;;;;147.95;29.02;;;8.00;99.90;;;;;;5113446;28;20035;-52
2022/12/09 01:11:33;;;;;;;124.35;31.65;;;7.90;99.90;;;;;;5113408;28;20035;-53
2022/12/09 01:14:01;;;;;;;157.25;31.75;;;7.90;99.90;;;;;;5106250;28;20026;-54
2022/12/09 01:16:30;;;;;;;119.63;30.05;;;7.90;99.90;;;;;;5102276;28;20039;-52
2022/12/09 01:19:02;;;;;;;159.93;32.08;;;7.60;99.90;;;;;;5098472;28;20032;-54
2022/12/09 01:21:29;;;;;;;200.90;34.63;;;7.60;99.90;;;;;;5101222;28;21070;-51
2022/12/09 01:23:55;;;;;;;186.05;34.58;;;7.90;99.90;;;;;;5099632;28;20032;-50
2022/12/09 01:26:21;;;;;;;144.60;32.17;;;7.90;99.90;;;;;;5099640;28;20036;-53
2022/12/09 01:28:51;;;;;;;215.05;36.10;;;8.00;99.90;;;;;;5096825;28;20047;-49
2022/12/09 01:31:20;;;;;;;167.52;34.85;;;7.70;99.90;;;;;;5111396;28;20063;-53
2022/12/09 01:33:46;;;;;;;207.00;34.97;;;7.40;99.90;;;;;;5099466;28;20036;-52
2022/12/09 01:36:19;;;;;;;221.10;36.03;;;7.60;99.90;;;;;;5092913;28;20039;-52
2022/12/09 01:38:46;;;;;;;161.25;33.45;;;7.70;99.90;;;;;;5040887;28;20087;-51
2022/12/09 01:41:13;;;;;;;196.95;32.05;;;7.50;99.90;;;;;;5092594;28;20040;-53
2022/12/09 01:43:39;;;;;;;122.70;31.05;;;7.30;99.90;;;;;;5074076;28;20051;-51
2022/12/09 01:46:05;;;;;;;119.97;30.98;;;7.30;99.90;;;;;;5092580;28;20115;-51
2022/12/09 01:48:35;;;;;;;96.20;27.63;;;7.30;99.90;;;;;;5090834;28;20092;-53
2022/12/09 01:51:09;;;;;;;87.35;27.80;;;7.20;99.90;;;;;;5094380;28;20024;-51
2022/12/09 01:53:37;;;;;;;107.47;28.25;;;7.40;99.90;;;;;;5096443;28;20432;-49
2022/12/09 01:56:09;;;;;;;97.32;30.98;;;7.10;99.90;;;;;;5101629;27;20048;-51
2022/12/09 01:58:35;;;;;;;99.78;29.42;;;7.30;99.90;;;;;;5090830;28;20097;-51
2022/12/09 02:01:01;;;;;;;123.45;31.30;;;6.90;99.90;;;;;;5116818;28;20463;-51
2022/12/09 02:03:27;;;;;;;122.47;30.67;;;6.90;99.90;;;;;;5116807;28;20031;-52
2022/12/09 02:05:53;;;;;;;134.25;31.25;;;7.20;99.90;;;;;;5063947;28;20042;-49
2022/12/09 02:08:19;;;;;;;93.95;30.88;;;7.30;99.90;;;;;;5116366;28;20088;-52
2022/12/09 02:11:10;;;;;;;118.90;28.80;;;7.30;99.90;;;;;;5116438;28;20031;-51
2022/12/09 02:13:39;;;;;;;111.90;28.88;;;7.20;99.90;;;;;;5116705;28;20072;-53
2022/12/09 02:16:11;;;;;;;113.05;30.80;;;7.00;99.90;;;;;;5116306;28;20032;-52
2022/12/09 02:18:56;;;;;;;80.55;30.20;;;7.10;99.90;;;;;;5114539;28;20611;-51
2022/12/09 02:21:31;;;;;;;91.07;28.70;;;7.40;99.90;;;;;;5116353;28;20122;-52
2022/12/09 02:24:05;;;;;;;83.07;28.55;;;7.40;99.90;;;;;;5115908;28;20544;-49
2022/12/09 02:26:44;;;;;;;63.75;26.25;;;7.60;99.90;;;;;;5116142;28;20110;-51
2022/12/09 02:29:28;;;;;;;83.63;30.55;;;7.60;99.90;;;;;;5115628;28;20042;-50
2022/12/09 02:31:54;;;;;;;68.22;28.65;;;7.70;99.90;;;;;;5116300;28;20035;-53
2022/12/09 02:34:21;;;;;;;70.82;27.33;;;7.70;99.90;;;;;;5116293;28;20020;-50
2022/12/09 02:37:07;;;;;;;74.97;26.98;;;7.50;99.90;;;;;;5116147;28;20071;-52
2022/12/09 02:39:52;;;;;;;78.28;26.85;;;7.50;99.90;;;;;;5116158;28;20036;-51
2022/12/09 02:42:21;;;;;;;42.55;22.42;;;7.50;99.90;;;;;;5115831;28;20454;-49
2022/12/09 02:44:49;;;;;;;47.90;23.25;;;7.40;99.90;;;;;;5115899;28;20032;-50
2022/12/09 02:47:19;;;;;;;68.28;23.73;;;7.50;99.90;;;;;;5115605;28;20031;-50
2022/12/09 02:49:49;;;;;;;58.45;24.58;;;7.60;99.90;;;;;;5113753;28;20627;-51
2022/12/09 02:52:17;;;;;;;61.78;23.98;;;7.50;99.90;;;;;;5096656;28;20391;-48
2022/12/09 02:54:43;;;;;;;63.72;24.55;;;7.40;99.90;;;;;;5115471;28;20479;-49
2022/12/09 02:57:19;;;;;;;82.38;22.30;;;7.40;99.90;;;;;;5115438;27;20543;-51
2022/12/09 02:59:45;;;;;;;78.93;20.35;;;;;;;;;;5113583;28;20051;-50
2022/12/09 03:02:27;;;;;;;69.43;23.08;;;;;;;;;;5114816;28;20043;-53
2022/12/09 03:05:09;;;;;;;79.88;26.83;;;;;;;;;;5115328;28;20386;-52
2022/12/09 03:07:53;;;;;;;64.53;24.75;;;;;;;;;;5115468;28;20081;-53
2022/12/09 03:10:46;;;;;;;61.03;24.55;;;;;;;;;;5115140;28;20024;-52
2022/12/09 03:13:38;;;;;;;65.97;22.45;;;;;;;;;;5113011;28;20118;-49
2022/12/09 03:16:10;;;;;;;43.58;22.38;;;;;;;;;;5113076;28;20585;-49
2022/12/09 03:18:38;;;;;;;50.30;21.08;;;;;;;;;;5115107;28;20390;-51
2022/12/09 03:21:05;;;;;;;54.05;24.67;;;6.60;99.90;;;;;;5115355;28;20039;-52
2022/12/09 03:23:32;;;;;;;35.88;22.25;;;;;;;;;;5113025;28;20045;-51
2022/12/09 03:25:59;;;;;;;43.40;25.08;;;;;;;;;;5114837;28;20486;-51
2022/12/09 03:28:32;;;;;;;58.13;31.48;;;;;;;;;;5114884;27;20443;-53
2022/12/09 03:31:02;;;;;;;61.75;31.65;;;6.90;99.90;;;;;;5114860;28;20077;-51
2022/12/09 03:33:30;;;;;;;44.22;23.38;;;7.20;99.90;;;;;;5114729;28;20076;-49
2022/12/09 03:36:00;;;;;;;38.08;21.45;;;7.10;99.90;;;;;;5114950;28;20081;-50
2022/12/09 03:41:50;;;;;;;44.97;22.70;;;;;;;;;;5114557;28;20058;-52
2022/12/09 03:44:18;;;;;;;34.13;22.50;;;;;;;;;;5095882;28;20271;-52
2022/12/09 03:46:45;;;;;;;39.83;22.40;;;7.00;99.90;;;;;;5114589;28;20023;-53
2022/12/09 03:49:11;;;;;;;34.83;20.83;;;7.40;99.90;;;;;;5114634;28;20387;-53
2022/12/09 03:52:01;;;;;;;43.63;20.95;;;7.20;99.90;;;;;;5114462;28;20390;-49
2022/12/09 03:54:27;;;;;;;34.80;19.83;;;;;;;;;;5114613;28;20504;-51
2022/12/09 03:56:55;;;;;;;35.10;21.13;;;;;;;;;;5095423;28;20035;-52
2022/12/09 03:59:23;;;;;;;31.48;21.48;;;6.90;99.90;;;;;;5114326;28;20032;-50
2022/12/09 04:01:49;;;;;;;32.03;20.48;;;;;;;;;;5114438;27;20045;-52
2022/12/09 04:04:16;;;;;;;31.08;20.20;;;7.00;99.90;;;;;;5114590;28;20027;-50
2022/12/09 04:06:42;;;;;;;33.25;19.35;;;7.00;99.90;;;;;;5112139;28;20449;-53
2022/12/09 04:09:09;;;;;;;31.35;19.58;;;;;;;;;;5114188;28;20467;-49
2022/12/09 04:11:35;;;;;;;32.35;21.17;;;;;;;;;;5112620;28;20023;-50
2022/12/09 04:14:02;;;;;;;28.95;19.23;;;;;;;;;;5113045;28;20028;-49
2022/12/09 04:16:28;;;;;;;28.92;20.08;;;;;;;;;;5113866;28;20031;-53
2022/12/09 04:18:54;;;;;;;29.05;20.35;;;;;;;;;;5114147;28;20104;-53
2022/12/09 04:21:20;;;;;;;28.52;18.75;;;7.10;99.90;;;;;;5113919;28;20031;-49
2022/12/09 04:23:46;;;;;;;31.02;19.08;;;7.00;99.90;;;;;;5111671;28;20039;-52
2022/12/09 04:26:15;;;;;;;31.27;21.98;;;6.90;99.90;;;;;;5094997;28;20042;-53
2022/12/09 04:28:41;;;;;;;28.88;19.00;;;;;;;;;;5094652;28;20541;-52
2022/12/09 04:31:17;;;;;;;31.05;19.27;;;;;;;;;;5113850;28;20089;-52
2022/12/09 04:33:44;;;;;;;34.72;20.75;;;;;;;;;;5113969;28;20040;-51
2022/12/09 04:36:12;;;;;;;39.50;21.83;;;7.10;99.90;;;;;;5113746;28;20043;-52
2022/12/09 04:38:38;;;;;;;31.83;20.85;;;7.00;99.90;;;;;;5094810;28;20039;-52
2022/12/09 04:41:04;;;;;;;30.30;20.60;;;7.20;99.90;;;;;;5113773;28;20039;-50
2022/12/09 04:43:30;;;;;;;31.70;20.15;;;7.40;99.90;;;;;;5113913;28;20022;-50
2022/12/09 04:46:05;;;;;;;32.03;20.40;;;7.50;99.90;;;;;;5113491;28;20019;-53
2022/12/09 04:48:31;;;;;;;28.33;19.35;;;7.50;99.90;;;;;;5113590;28;20099;-53
2022/12/09 04:50:58;;;;;;;31.63;19.75;;;7.30;99.90;;;;;;5113350;28;20049;-51
2022/12/09 04:53:24;;;;;;;29.40;20.23;;;7.50;99.90;;;;;;5113941;28;20028;-51
2022/12/09 04:55:58;;;;;;;27.98;19.67;;;;;;;;;;5114015;28;20075;-50
2022/12/09 04:58:24;;;;;;;31.48;20.30;;;7.50;99.90;;;;;;5113842;28;20031;-51
2022/12/09 05:00:49;;;;;;;27.10;20.38;;;7.30;99.90;;;;;;5113820;28;20030;-49
2022/12/09 05:03:15;;;;;;;27.77;19.67;;;7.40;99.90;;;;;;5113842;28;20026;-52
2022/12/09 05:05:41;;;;;;;26.88;19.95;;;7.50;99.90;;;;;;5113220;28;20027;-54
2022/12/09 05:08:07;;;;;;;30.50;19.67;;;7.60;99.90;;;;;;5113731;28;20028;-51
2022/12/09 05:10:32;;;;;;;27.65;19.23;;;7.60;99.90;;;;;;5111053;28;20020;-50
2022/12/09 05:12:58;;;;;;;28.92;19.90;;;7.60;99.90;;;;;;5080892;28;20040;-52
2022/12/09 05:15:24;;;;;;;28.63;18.90;;;7.60;99.90;;;;;;5093078;28;20063;-50
2022/12/09 05:17:49;;;;;;;29.70;19.30;;;7.80;99.90;;;;;;5105960;28;20069;-50
2022/12/09 05:20:15;;;;;;;29.25;20.05;;;7.70;99.90;;;;;;5100530;28;20478;-51
2022/12/09 05:22:41;;;;;;;34.20;20.75;;;7.60;99.90;;;;;;5110737;28;20036;-52
2022/12/09 05:25:07;;;;;;;30.50;21.05;;;7.60;99.90;;;;;;5064916;28;20043;-59
2022/12/09 05:27:33;;;;;;;30.85;21.13;;;7.40;99.90;;;;;;5095919;28;20112;-52
2022/12/09 05:29:58;;;;;;;32.80;21.08;;;7.40;99.90;;;;;;5097969;28;20020;-51
2022/12/09 05:32:27;;;;;;;30.63;20.15;;;7.50;99.90;;;;;;5116282;28;20162;-51
2022/12/09 05:34:53;;;;;;;31.60;21.05;;;7.50;99.90;;;;;;5118015;28;20131;-50
2022/12/09 05:37:19;;;;;;;31.92;20.83;;;7.50;99.90;;;;;;5117536;28;20119;-52
2022/12/09 05:39:45;;;;;;;37.92;23.08;;;7.50;99.90;;;;;;5112861;28;20442;-52
2022/12/09 05:42:10;;;;;;;38.78;23.55;;;7.40;99.90;;;;;;5115768;28;20386;-52
2022/12/09 05:44:36;;;;;;;43.05;24.27;;;7.30;99.90;;;;;;5116988;27;20023;-51
2022/12/09 05:47:02;;;;;;;39.20;23.52;;;7.20;99.90;;;;;;5110260;28;20024;-50
2022/12/09 05:49:28;;;;;;;43.88;24.05;;;7.40;99.90;;;;;;5077508;28;20039;-49
2022/12/09 05:51:54;;;;;;;61.03;23.95;;;7.40;99.90;;;;;;5114160;28;20140;-52
2022/12/09 05:54:20;;;;;;;52.30;25.00;;;7.40;99.90;;;;;;5116040;28;20031;-52
2022/12/09 05:56:46;;;;;;;63.17;26.27;;;7.20;99.90;;;;;;5063343;28;20028;-52
2022/12/09 05:59:11;;;;;;;78.28;27.67;;;7.30;99.90;;;;;;5111124;27;20139;-51
2022/12/09 06:01:37;;;;;;;69.28;26.13;;;7.30;99.90;;;;;;5112525;28;20043;-53
2022/12/09 06:04:03;;;;;;;55.05;24.92;;;7.30;99.90;;;;;;5116427;28;20080;-54
2022/12/09 06:06:29;;;;;;;47.45;24.38;;;7.30;99.90;;;;;;5096824;28;20028;-52
2022/12/09 06:09:00;;;;;;;59.45;27.30;;;7.40;99.90;;;;;;5116395;28;20042;-54
2022/12/09 06:11:26;;;;;;;74.90;31.00;;;7.40;99.90;;;;;;5108895;27;20046;-52
2022/12/09 06:13:53;;;;;;;70.05;29.05;;;7.20;99.90;;;;;;5107742;27;20028;-53
2022/12/09 06:16:21;;;;;;;72.10;28.00;;;7.20;99.90;;;;;;5103031;27;20058;-50
2022/12/09 06:18:47;;;;;;;58.97;24.27;;;7.10;99.90;;;;;;5109274;28;20023;-51
2022/12/09 06:21:14;;;;;;;52.78;25.48;;;7.00;99.90;;;;;;5115171;27;20031;-53
2022/12/09 06:23:41;;;;;;;60.70;30.98;;;7.00;99.90;;;;;;5115738;28;20375;-48
2022/12/09 06:26:21;;;;;;;76.30;31.58;;;7.10;99.90;;;;;;5115076;28;20038;-52
2022/12/09 06:28:47;;;;;;;78.47;37.83;;;7.10;99.90;;;;;;5115226;28;20446;-50
2022/12/09 06:31:13;;;;;;;73.95;39.70;;;7.00;99.90;;;;;;5062078;28;20053;-50
2022/12/09 06:33:39;;;;;;;73.93;38.80;;;7.10;99.90;;;;;;5095837;28;20035;-51
2022/12/09 06:36:05;;;;;;;71.82;34.03;;;7.30;99.90;;;;;;5074857;28;20040;-52
2022/12/09 06:38:31;;;;;;;95.60;32.85;;;7.20;99.90;;;;;;5091048;28;20192;-49
2022/12/09 06:40:56;;;;;;;56.47;28.23;;;7.20;99.90;;;;;;5091984;28;20150;-49
2022/12/09 06:43:23;;;;;;;49.65;29.70;;;;;;;;;;5082960;28;20039;-51
2022/12/09 06:45:48;;;;;;;60.47;31.60;;;7.30;99.90;;;;;;5036709;28;20042;-53
2022/12/09 06:48:14;;;;;;;66.85;32.58;;;7.30;99.90;;;;;;5054725;28;20032;-49
2022/12/09 06:50:40;;;;;;;62.40;28.95;;;;;;;;;;5071560;28;20029;-49
2022/12/09 06:53:06;;;;;;;52.92;25.42;;;7.10;99.90;;;;;;5071448;28;20039;-50
2022/12/09 06:55:32;;;;;;;40.35;22.48;;;7.00;99.90;;;;;;5071520;28;20563;-52
2022/12/09 06:57:58;;;;;;;46.53;24.35;;;7.00;99.90;;;;;;5083369;28;20032;-52
2022/12/09 07:00:25;;;;;;;43.90;22.30;;;7.00;99.90;;;;;;5091557;28;20513;-50
2022/12/09 07:02:51;;;;;;;41.63;21.15;;;7.00;99.90;;;;;;5091523;28;20101;-51
2022/12/09 07:05:18;;;;;;;50.35;25.52;;;6.90;99.90;;;;;;5057764;28;20060;-52
2022/12/09 07:07:43;;;;;;;49.25;26.10;;;6.80;99.90;;;;;;5109200;28;20036;-52
2022/12/09 07:10:09;;;;;;;54.33;27.98;;;7.00;99.90;;;;;;5114102;28;20483;-52
2022/12/09 07:12:35;;;;;;;57.90;27.33;;;7.00;99.90;;;;;;5061186;28;20031;-51
2022/12/09 07:15:01;;;;;;;45.55;26.83;;;7.20;99.90;;;;;;5095064;28;20368;-52
2022/12/09 07:17:27;;;;;;;48.25;28.42;;;7.20;99.90;;;;;;5115076;28;20023;-49
2022/12/09 07:19:52;;;;;;;45.80;25.42;;;7.40;99.90;;;;;;5113710;28;20032;-49
2022/12/09 07:22:18;;;;;;;49.72;25.45;;;7.50;99.90;;;;;;5115097;28;20039;-51
2022/12/09 07:24:44;;;;;;;43.95;24.55;;;7.50;99.90;;;;;;5095928;28;20036;-50
2022/12/09 07:27:13;;;;;;;44.42;28.83;;;7.40;99.90;;;;;;5114806;28;20129;-50
2022/12/09 07:29:39;;;;;;;54.08;30.52;;;;;;;;;;5114916;28;20047;-50
2022/12/09 07:32:07;;;;;;;62.42;36.25;;;7.80;99.90;;;;;;5114967;28;20027;-52
2022/12/09 07:34:33;;;;;;;54.08;32.55;;;7.80;99.90;;;;;;5115187;28;20027;-49
2022/12/09 07:36:59;;;;;;;45.08;28.70;;;7.80;99.90;;;;;;5114711;28;20467;-50
2022/12/09 07:39:24;;;;;;;39.63;25.63;;;7.90;99.90;;;;;;5114612;28;20020;-51
2022/12/09 07:41:57;;;;;;;39.55;23.25;;;7.80;99.90;;;;;;5114982;28;20028;-50
2022/12/09 07:44:27;;;;;;;36.55;24.00;;;7.70;99.90;;;;;;5114065;28;20475;-52
2022/12/09 07:46:54;;;;;;;36.97;23.10;;;7.60;99.90;;;;;;5074838;28;20596;-51
2022/12/09 07:49:20;;;;;;;33.15;24.52;;;7.60;99.90;;;;;;5091169;28;20043;-52
2022/12/09 07:51:46;;;;;;;38.10;25.23;;;7.60;99.90;;;;;;5090808;28;20387;-51
2022/12/09 07:54:13;;;;;;;59.65;36.67;;;7.50;99.90;;;;;;5058097;28;20548;-51
2022/12/09 07:56:39;;;;;;;54.50;35.03;;;7.50;99.90;;;;;;5091624;28;20372;-51
2022/12/09 07:59:07;;;;;;;52.13;34.15;;;7.60;99.90;;;;;;5091887;28;20030;-50
2022/12/09 08:01:33;;;;;;;43.83;28.75;;;7.90;99.90;;;;;;5091373;28;20073;-49
2022/12/09 08:04:00;;;;;;;46.03;30.60;;;8.00;99.90;;;;;;5058179;28;20032;-50
2022/12/09 08:06:28;;;;;;;46.85;31.08;;;7.90;99.90;;;;;;5071377;28;20558;-49
2022/12/09 08:08:57;;;;;;;43.78;28.58;;;8.00;99.90;;;;;;5058133;28;20502;-51
2022/12/09 08:11:27;;;;;;;47.22;31.33;;;8.00;99.90;;;;;;5057360;28;20475;-51
2022/12/09 08:13:56;;;;;;;53.22;33.28;;;8.00;99.90;;;;;;5091517;28;20605;-49
2022/12/09 08:16:22;;;;;;;44.90;28.90;;;7.90;99.90;;;;;;5057895;28;20039;-50
2022/12/09 08:18:49;;;;;;;44.03;27.35;;;7.90;99.90;;;;;;5111788;28;20028;-49
2022/12/09 08:21:17;;;;;;;43.55;29.45;;;8.00;99.90;;;;;;5113903;28;20039;-51
2022/12/09 08:23:43;;;;;;;43.80;32.58;;;8.10;99.90;;;;;;5114063;28;20019;-51
2022/12/09 08:26:14;;;;;;;55.85;40.38;;;8.30;99.90;;;;;;5113904;28;20027;-49
2022/12/09 08:28:40;;;;;;;72.28;51.67;;;8.00;99.90;;;;;;5095412;28;20056;-49
2022/12/09 08:31:11;;;;;;;56.70;40.58;;;8.00;99.90;;;;;;5113498;28;20055;-50
2022/12/09 08:33:37;;;;;;;44.10;32.70;;;;;;;;;;5113637;28;20436;-49
2022/12/09 08:36:11;;;;;;;39.20;29.67;;;8.40;99.90;;;;;;5094622;28;20046;-49
2022/12/09 08:38:37;;;;;;;42.00;28.67;;;;;;;;;;5113382;28;20068;-50
2022/12/09 08:41:10;;;;;;;40.63;29.45;;;;;;;;;;5113480;28;20132;-49
2022/12/09 08:43:37;;;;;;;40.83;28.13;;;8.90;99.90;;;;;;5113255;28;20034;-50
2022/12/09 08:46:03;;;;;;;40.50;29.35;;;8.50;99.90;;;;;;5112878;28;20492;-50
2022/12/09 08:48:29;;;;;;;45.05;33.33;;;8.60;99.90;;;;;;5113441;28;20055;-50
2022/12/09 08:50:54;;;;;;;46.25;32.28;;;8.60;99.90;;;;;;5113421;28;20076;-50
2022/12/09 08:53:20;;;;;;;52.72;35.88;;;8.70;99.90;;;;;;5113025;28;20019;-49
2022/12/09 08:55:46;;;;;;;45.17;33.55;;;8.80;99.90;;;;;;5113354;28;20102;-50
2022/12/09 08:58:12;;;;;;;43.25;31.13;;;;;;;;;;5094626;28;20039;-51
2022/12/09 09:00:38;;;;;;;51.80;32.90;;;9.10;99.90;;;;;;5095716;28;20036;-51
2022/12/09 09:03:03;;;;;;;49.33;34.78;;;8.90;99.90;;;;;;5117328;28;20062;-50
2022/12/09 09:05:29;;;;;;;52.33;35.10;;;9.30;99.90;;;;;;5098639;28;20043;-51
2022/12/09 09:07:55;;;;;;;59.50;38.30;;;9.40;99.90;;;;;;5117756;28;20031;-50
2022/12/09 09:10:21;;;;;;;48.65;33.83;;;9.40;99.90;;;;;;5117622;28;20027;-50
2022/12/09 09:12:47;;;;;;;45.13;30.70;;;;;;;;;;5117875;28;20034;-50
2022/12/09 09:15:13;;;;;;;46.17;32.47;;;9.50;99.90;;;;;;5117392;28;20463;-52
2022/12/09 09:17:38;;;;;;;47.92;33.90;;;9.40;99.90;;;;;;5116961;28;20067;-51
2022/12/09 09:20:05;;;;;;;49.28;34.40;;;9.20;99.90;;;;;;5117677;28;20069;-51
2022/12/09 09:22:30;;;;;;;46.33;33.88;;;9.10;99.90;;;;;;5098452;28;20074;-51
2022/12/09 09:24:56;;;;;;;43.03;31.27;;;9.00;99.90;;;;;;5117465;28;20054;-52
2022/12/09 09:27:22;;;;;;;45.95;33.13;;;9.00;99.90;;;;;;5116105;28;20043;-49
2022/12/09 09:29:48;;;;;;;43.97;31.58;;;9.10;99.90;;;;;;5098035;27;20051;-53
2022/12/09 09:32:13;;;;;;;51.42;37.58;;;9.10;99.90;;;;;;5117453;27;20030;-51
2022/12/09 09:34:39;;;;;;;63.85;44.65;;;9.20;99.90;;;;;;5117643;28;20157;-61
2022/12/09 09:37:05;;;;;;;62.08;41.40;;;9.30;99.90;;;;;;5116714;28;20034;-55
2022/12/09 09:39:30;;;;;;;60.67;43.28;;;9.40;99.90;;;;;;5116274;28;20036;-63
2022/12/09 09:42:02;;;;;;;63.75;42.25;;;9.30;99.90;;;;;;5116853;28;20035;-48
2022/12/09 09:44:37;;;;;;;67.60;48.28;;;9.30;99.90;;;;;;5116502;28;20019;-53
2022/12/09 09:47:25;;;;;;;65.82;44.92;;;9.40;99.90;;;;;;5115662;27;20024;-55
2022/12/09 09:50:18;;;;;;;60.00;39.22;;;9.50;99.90;;;;;;5120525;27;20039;-55
2022/12/09 09:52:44;;;;;;;56.58;41.00;;;9.50;99.90;;;;;;5136996;27;20028;-55
2022/12/09 09:55:16;;;;;;;54.55;38.65;;;9.60;99.90;;;;;;5137218;27;20030;-54
2022/12/09 09:58:26;;;;;;;52.50;36.90;;;9.60;99.90;;;;;;5114339;28;20538;-54
2022/12/09 10:01:04;;;;;;;56.15;38.72;;;9.60;99.90;;;;;;5072048;28;20160;-54
2022/12/09 10:04:00;;;;;;;52.00;40.15;;;9.70;99.90;;;;;;5073119;28;20028;-54
2022/12/09 10:06:50;;;;;;;51.28;36.40;;;9.90;99.90;;;;;;5056592;28;20143;-55
2022/12/09 10:09:16;;;;;;;53.60;37.38;;;9.90;99.90;;;;;;5073528;28;20115;-54
2022/12/09 10:11:56;;;;;;;50.40;37.97;;;10.10;99.90;;;;;;5073255;28;20111;-55
2022/12/09 10:14:27;;;;;;;63.60;44.97;;;10.10;99.90;;;;;;5039636;28;20040;-55
2022/12/09 10:17:10;;;;;;;58.65;42.10;;;10.20;99.90;;;;;;5072925;28;20527;-54
2022/12/09 10:19:46;;;;;;;52.17;35.83;;;10.20;99.90;;;;;;5073143;28;20039;-57
2022/12/09 10:22:18;;;;;;;145.07;113.38;;;10.30;99.90;;;;;;5073364;28;20055;-55
2022/12/09 10:24:50;;;;;;;151.18;120.18;;;10.20;99.90;;;;;;5073202;28;20036;-55
2022/12/09 10:27:36;;;;;;;117.43;98.35;;;10.30;99.90;;;;;;5072428;28;20050;-54
2022/12/09 10:30:13;;;;;;;69.88;50.50;;;10.20;99.90;;;;;;5093154;28;20190;-54
2022/12/09 10:32:39;;;;;;;48.92;35.03;;;10.20;99.90;;;;;;5032919;28;20120;-55
2022/12/09 10:35:13;;;;;;;45.28;33.13;;;10.20;99.90;;;;;;5033181;28;20104;-54
2022/12/09 10:37:39;;;;;;;38.70;25.08;;;10.30;99.90;;;;;;5066242;28;20060;-54
2022/12/09 10:40:11;;;;;;;51.08;33.15;;;10.50;99.90;;;;;;5093385;28;20128;-54
2022/12/09 10:45:33;;;;;;;44.35;32.95;;;;;;;;;;5053052;28;20421;-54
2022/12/09 10:47:59;;;;;;;40.33;29.55;;;;;;;;;;5074961;28;20507;-54
2022/12/09 10:50:33;;;;;;;35.35;26.27;;;11.00;99.90;;;;;;5073053;28;20024;-56
2022/12/09 10:53:12;;;;;;;32.63;21.88;;;11.20;99.90;;;;;;5072805;28;20428;-55
2022/12/09 10:55:41;;;;;;;28.48;18.58;;;11.40;99.90;;;;;;5071981;28;20408;-57
2022/12/09 10:58:19;;;;;;;21.60;15.77;;;11.60;99.90;;;;;;5072352;28;20106;-56
2022/12/09 11:01:04;;;;;;;18.27;13.75;;;11.70;99.90;;;;;;5071450;28;20535;-57
2022/12/09 11:03:33;;;;;;;20.70;13.23;;;11.80;99.90;;;;;;5074912;28;20040;-57
2022/12/09 11:06:14;;;;;;;21.65;12.93;;;11.90;99.90;;;;;;5103245;28;20023;-55
2022/12/09 11:08:41;;;;;;;18.17;11.18;;;;;;;;;;5103181;28;20115;-56
2022/12/09 11:11:07;;;;;;;19.67;11.70;;;;;;;;;;5108284;27;20024;-54
2022/12/09 11:13:40;;;;;;;19.55;10.77;;;12.30;99.90;;;;;;5107365;27;20131;-54
2022/12/09 11:16:07;;;;;;;16.83;10.50;;;12.20;99.90;;;;;;5097765;28;20058;-55
2022/12/09 11:18:42;;;;;;;18.13;11.13;;;;;;;;;;5112676;27;20036;-55
2022/12/09 11:21:31;;;;;;;19.13;10.45;;;12.40;99.90;;;;;;5107831;27;20031;-57
2022/12/09 11:23:58;;;;;;;16.77;9.85;;;12.40;99.90;;;;;;5133532;27;20044;-54
2022/12/09 11:26:30;;;;;;;15.52;10.50;;;12.50;99.90;;;;;;5098796;27;20456;-56
2022/12/09 11:29:04;;;;;;;17.75;11.07;;;12.50;99.90;;;;;;5094148;28;20048;-55
2022/12/09 11:31:32;;;;;;;18.15;10.40;;;12.50;99.90;;;;;;5094352;28;20076;-57
2022/12/09 11:34:23;;;;;;;19.00;10.80;;;12.60;99.90;;;;;;5078150;28;20092;-55
2022/12/09 11:36:51;;;;;;;16.77;11.38;;;;;;;;;;5094387;28;20062;-57
2022/12/09 11:39:19;;;;;;;21.85;9.32;;;12.70;99.90;;;;;;5094343;28;20523;-56
2022/12/09 11:44:35;;;;;;;19.02;10.27;;;12.90;99.90;;;;;;5094772;28;20499;-56
2022/12/09 11:47:01;;;;;;;23.20;14.43;;;;;;;;;;5093873;28;20035;-55
2022/12/09 11:49:30;;;;;;;23.55;12.82;;;12.90;99.90;;;;;;5094222;28;20415;-56
2022/12/09 11:52:03;;;;;;;18.85;9.23;;;12.90;99.90;;;;;;5093974;28;20391;-57
2022/12/09 11:54:48;;;;;;;12.70;6.85;;;12.80;99.90;;;;;;5099052;27;20028;-55
2022/12/09 11:57:29;;;;;;;13.40;7.32;;;12.70;99.90;;;;;;5094470;28;20085;-57
2022/12/09 12:00:00;;;;;;;12.77;8.45;;;12.70;99.90;;;;;;5094002;28;20384;-56
2022/12/09 12:02:31;;;;;;;17.45;7.75;;;12.70;99.90;;;;;;5094162;28;20036;-57
2022/12/09 12:05:12;;;;;;;16.90;10.18;;;12.80;99.90;;;;;;5094156;28;20078;-55
2022/12/09 12:07:45;;;;;;;17.05;9.43;;;12.80;99.90;;;;;;5093885;28;20097;-55
2022/12/09 12:10:22;;;;;;;18.85;10.45;;;12.90;99.90;;;;;;5125497;27;20024;-56
2022/12/09 12:13:09;;;;;;;12.95;8.13;;;13.00;99.90;;;;;;5093669;28;20034;-55
2022/12/09 12:15:55;;;;;;;13.52;7.88;;;;;;;;;;5091406;28;20361;-55
2022/12/09 12:18:21;;;;;;;15.27;7.18;;;13.00;99.90;;;;;;5091521;28;20031;-57
2022/12/09 12:20:57;;;;;;;13.30;7.45;;;13.00;99.90;;;;;;5091488;28;20091;-57
2022/12/09 12:24:04;;;;;;;16.88;8.13;;;13.10;99.90;;;;;;5091452;28;20024;-56
2022/12/09 12:26:54;;;;;;;14.43;8.13;;;13.00;99.90;;;;;;5091479;28;20102;-56
2022/12/09 12:29:39;;;;;;;12.75;6.00;;;;;;;;;;5091196;28;20141;-54
2022/12/09 12:32:05;;;;;;;14.35;7.60;;;;;;;;;;5074306;28;20047;-55
2022/12/09 12:34:46;;;;;;;14.38;8.35;;;14.30;99.90;;;;;;5091022;28;20511;-54
2022/12/09 12:37:17;;;;;;;19.65;8.05;;;13.40;99.90;;;;;;5090997;28;20526;-55
2022/12/09 12:39:58;;;;;;;16.85;7.60;;;13.40;99.90;;;;;;5091178;28;20077;-56
2022/12/09 12:46:15;;;;;;;16.90;6.60;;;;;;;;;;5090935;28;20040;-54
2022/12/09 12:48:20;;;;;;;15.45;7.82;;;;;;;;;;5093471;28;20035;-57
2022/12/09 12:51:19;;;;;;;13.82;7.47;;;13.40;99.90;;;;;;5093203;28;20046;-57
2022/12/09 12:53:53;;;;;;;13.02;6.65;;;13.40;99.90;;;;;;5077221;28;20039;-58
2022/12/09 12:56:50;;;;;;;10.98;6.05;;;13.40;99.90;;;;;;5093253;28;20112;-55
2022/12/09 12:59:34;;;;;;;13.23;7.00;;;13.40;99.90;;;;;;5050527;28;20037;-56
2022/12/09 13:02:17;;;;;;;19.23;7.43;;;13.30;99.90;;;;;;5050620;28;20531;-55
2022/12/09 13:04:59;;;;;;;16.95;6.35;;;13.40;99.90;;;;;;5050673;28;20135;-54
2022/12/09 13:07:40;;;;;;;18.75;6.82;;;13.40;99.90;;;;;;5050613;28;20780;-55
2022/12/09 13:10:31;;;;;;;12.48;7.07;;;13.50;99.90;;;;;;5050533;28;20116;-56
2022/12/09 13:13:00;;;;;;;16.25;6.20;;;13.60;99.90;;;;;;5050574;28;20515;-57
2022/12/09 13:15:37;;;;;;;18.98;6.47;;;;;;;;;;5050533;28;20064;-56